Kenwood, Indiana
Current Conditions -  °F | °C
As of 12:53 AM on Thursday 18 Dec 2014 (Local Time) from KHUF Reporting Station
Overcast Overcast  
Wind Chill: 19°   Ceiling: 1600
Heat Index: 25°   Visibility: 10mi
Dew Point: 19°   Wind: 5mph
Humidity: 78%   Direction: 20°NNE
Pressure: 30.31"   Gusts: NA
Location:  39.5107°N, 87.4772°W
Report Text: KHUF 180553Z 02004KT 10SM OVC016 M04/M07 A3031 RMK AO2 SLP270 T10391072 11039 21044 58001
Loading
Personal Weather Stations






























Interactive Weather Map New forecast layout! Learn more

10-Day Weather Forecast

Advertisements
Track Severe Weather on mobile